Latest Coastal Weather Observations for Cape Naturaliste

IDW60701

Issued at 6:12 am WST Wednesday 5 August 2015 (issued every 10 minutes, with the page automatically refreshed every 10 minutes)

About coastal observations | Map of coastal stations | Coastal observations for WA | Marine services | Other Formats
Station Details ID: 009519 Name: CAPE NATURALISTE Lat: -33.54 Lon: 115.02 Height: 109.0 m
Data from the previous 72 hours. | See also: Recent months at Cape Naturaliste
Date/Time
WST
Temp

°C
Wind Pressure Rain
since 9am
mm
Weather Cloud Vis
km
Sea
Height
m
Swell
Dir
 
Speed
knots
Gust
knots
hPa Trend Height
m
Period
s
Dir
05/06:00am 8.6 ESE 12 14 1030.1 - 0.0 - - - - - - -
05/05:30am 8.5 ESE 11 13 1030.1 - 0.0 - - - - - - -
05/05:00am 8.6 ESE 11 12 1030.0 - 0.0 - - - - - - -
05/04:30am 8.4 ESE 10 11 1030.1 - 0.0 - - - - - - -
05/04:00am 8.8 ESE 10 12 1030.1 - 0.0 - - - - - - -
05/03:30am 8.7 SE 11 12 1030.2 - 0.0 - - - - - - -
05/03:00am 9.2 ESE 10 14 1030.5 - 0.0 - - - - - - -
05/02:30am 9.2 ESE 9 11 1030.8 - 0.0 - - - - - - -
05/02:00am 10.3 ESE 12 16 1031.0 - 0.0 - - - - - - -
05/01:30am 9.4 ESE 11 14 1031.2 - 0.0 - - - - - - -
05/01:00am 9.3 ESE 11 13 1031.4 - 0.0 - - - - - - -
05/12:30am 9.3 ESE 11 14 1031.5 - 0.0 - - - - - - -
05/12:00am 9.6 ESE 12 15 1031.6 - 0.0 - - - - - - -
 
Date/Time
WST
Temp

°C
Wind Pressure Rain
since 9am
mm
Weather Cloud Vis
km
Sea
Height
m
Swell
Dir
 
Speed
knots
Gust
knots
hPa Trend Height
m
Period
s
Dir
04/11:30pm 10.0 SE 12 16 1031.7 - 0.0 - - - - - - -
04/11:00pm 10.3 SE 12 16 1031.8 - 0.0 - - - - - - -
04/10:30pm 10.6 SE 13 19 1031.8 - 0.0 - - - - - - -
04/10:00pm 10.6 SE 12 16 1032.1 - 0.0 - - - - - - -
04/09:30pm 10.8 SSE 12 16 1032.2 - 0.0 - - - - - - -
04/09:00pm 11.0 SSE 12 18 1032.3 - 0.0 - - - - - - -
04/08:30pm 11.3 SSE 12 17 1032.3 - 0.0 - - - - - - -
04/08:00pm 11.5 SSE 12 16 1032.4 - 0.0 - - - - - - -
04/07:30pm 11.8 SSE 12 15 1032.3 - 0.0 - - - - - - -
04/07:00pm 12.3 SSE 10 13 1032.2 - 0.0 - - - - - - -
04/06:30pm 13.1 SSW 6 7 1032.1 - 0.0 - - - - - - -
04/06:00pm 13.3 SSW 5 6 1031.8 - 0.0 - - - - - - -
04/05:30pm 14.2 SW 3 4 1031.6 - 0.0 - - - - - - -
04/05:00pm 15.5 SW 5 6 1031.4 - 0.0 - - - - - - -
04/04:30pm 15.8 SW 6 9 1031.4 - 0.0 - - - - - - -
04/04:00pm 16.6 ESE 6 9 1031.3 - 0.0 - - - - - - -
04/03:30pm 16.6 E 7 8 1031.4 - 0.0 - - - - - - -
04/03:00pm 16.9 ENE 7 9 1031.6 - 0.0 - - - - - - -
04/02:30pm 16.8 E 7 9 1031.8 - 0.0 - - - - - - -
04/02:00pm 16.5 E 8 11 1031.9 - 0.0 - - - - - - -
04/01:30pm 16.5 E 8 11 1032.2 - 0.0 - - - - - - -
04/01:00pm 16.5 ENE 7 11 1032.7 - 0.0 - - - - - - -
04/12:30pm 16.1 E 8 11 1033.1 - 0.0 - - - - - - -
04/12:00pm 15.9 E 9 11 1033.6 - 0.0 - - - - - - -
04/11:30am 15.5 ESE 9 11 1034.0 - 0.0 - - - - - - -
04/11:00am 15.3 E 10 13 1034.2 - 0.0 - - - - - - -
04/10:30am 14.3 E 10 13 1034.3 - 0.0 - - - - - - -
04/10:00am 14.0 ESE 10 13 1034.5 - 0.0 - - - - - - -
04/09:30am 12.6 ESE 10 13 1034.7 - 0.0 - - - - - - -
04/09:00am 12.2 ESE 10 14 1034.7 - 0.2 - - - - - - -
04/08:30am 10.9 ESE 10 13 1034.4 - 0.2 - - - - - - -
04/08:00am 9.7 SE 10 11 1034.1 - 0.2 - - - - - - -
04/07:30am 8.8 SE 10 11 1034.0 - 0.2 - - - - - - -
04/07:00am 8.6 ESE 11 13 1033.9 - 0.2 - - - - - - -
04/06:30am 8.6 ESE 10 12 1033.8 - 0.2 - - - - - - -
04/06:00am 8.8 ESE 11 12 1033.8 - 0.2 Recent precip. - - - - - -
04/05:30am 9.0 ESE 11 13 1033.6 - 0.2 - - - - - - -
04/05:00am 8.9 ESE 10 13 1033.6 - 0.0 - - - - - - -
04/04:30am 9.1 ESE 11 12 1033.5 - 0.0 - - - - - - -
04/04:00am 9.1 SE 10 12 1033.4 - 0.0 - - - - - - -
04/03:30am 9.2 SE 9 11 1033.3 - 0.0 - - - - - - -
04/03:00am 9.3 SE 9 11 1033.4 - 0.0 - - - - - - -
04/02:30am 9.4 ESE 9 11 1033.4 - 0.0 - - - - - - -
04/02:00am 9.7 SE 8 10 1033.4 - 0.0 - - - - - - -
04/01:30am 9.9 SE 9 11 1033.5 - 0.0 - - - - - - -
04/01:00am 10.1 SE 9 11 1033.6 - 0.0 - - - - - - -
04/12:30am 10.4 SE 11 14 1033.6 - 0.0 - - - - - - -
04/12:00am 10.4 SE 10 13 1033.5 - 0.0 - - - - - - -
 
Date/Time
WST
Temp

°C
Wind Pressure Rain
since 9am
mm
Weather Cloud Vis
km
Sea
Height
m
Swell
Dir
 
Speed
knots
Gust
knots
hPa Trend Height
m
Period
s
Dir
03/11:30pm 10.6 SE 11 14 1033.5 - 0.0 - - - - - - -
03/11:00pm 10.8 SE 11 13 1033.8 - 0.0 - - - - - - -
03/10:30pm 11.1 SE 11 14 1033.8 - 0.0 - - - - - - -
03/10:00pm 11.4 SSE 11 16 1034.1 - 0.0 - - - - - - -
03/09:30pm 11.6 SSE 11 16 1034.3 - 0.0 - - - - - - -
03/09:00pm 11.7 SSE 12 15 1034.2 - 0.0 - - - - - - -
03/08:30pm 11.8 SSE 12 15 1034.1 - 0.0 - - - - - - -
03/08:00pm 11.9 SSE 11 14 1034.0 - 0.0 - - - - - - -
03/07:30pm 12.3 S 11 15 1033.6 - 0.0 - - - - - - -
03/07:00pm 12.7 S 12 15 1033.7 - 0.0 - - - - - - -
03/06:30pm 12.6 S 11 13 1033.4 - 0.0 - - - - - - -
03/06:00pm 12.6 SSW 10 11 1033.2 - 0.0 - - - - - - -
03/05:30pm 12.8 SSW 7 9 1033.3 - 0.0 - - - - - - -
03/05:00pm 14.4 WSW 5 7 1033.2 - 0.0 - - - - - - -
03/04:30pm 15.8 W 3 5 1033.4 - 0.0 - - - - - - -
03/04:00pm 16.1 NW 4 6 1033.6 - 0.0 - - - - - - -
03/03:30pm 16.0 N 5 7 1033.6 - 0.0 - - - - - - -
03/03:00pm 16.5 NE 6 8 1033.3 - 0.0 - - - - - - -
03/02:30pm 16.4 NE 7 9 1033.2 - 0.0 - - - - - - -
03/02:00pm 16.6 ENE 6 8 1033.7 - 0.0 - - - - - - -
03/01:30pm 16.8 NE 5 9 1033.9 - 0.0 - - - - - - -
03/01:00pm 16.5 NE 6 9 1034.3 - 0.0 - - - - - - -
03/12:30pm 16.3 NE 7 9 1034.6 - 0.0 - - - - - - -
03/12:00pm 16.2 NE 7 10 1035.2 - 0.0 - - - - - - -
03/11:30am 15.7 ENE 8 11 1035.5 - 0.0 - - - - - - -
03/11:00am 15.4 E 8 11 1035.9 - 0.0 - - - - - - -
03/10:30am 14.1 E 8 11 1035.8 - 0.0 - - - - - - -
03/10:00am 13.8 E 8 11 1035.8 - 0.0 - - - - - - -
03/09:30am 13.8 E 7 9 1036.0 - 0.0 - - - - - - -
03/09:00am 12.7 E 7 9 1035.8 - 0.0 - - - - - - -
03/08:30am 11.4 ESE 8 10 1035.5 - 0.0 - - - - - - -
03/08:00am 9.8 SE 9 11 1035.3 - 0.0 - - - - - - -
03/07:30am 8.7 SE 9 10 1035.1 - 0.0 - - - - - - -
03/07:00am 8.4 SE 9 10 1034.9 - 0.0 - - - - - - -
03/06:30am 8.4 SE 9 10 1034.7 - 0.0 - - - - - - -
03/06:00am 8.5 SE 9 11 1034.4 - 0.0 - - - - - - -
03/05:30am 8.6 SE 9 10 1034.3 - 0.0 - - - - - - -
03/05:00am 8.7 SE 9 10 1034.3 - 0.0 - - - - - - -
03/04:30am 8.8 SE 9 10 1034.5 - 0.0 - - - - - - -
03/04:00am 8.9 SE 9 10 1034.4 - 0.0 - - - - - - -
03/03:30am 8.8 SE 9 10 1034.5 - 0.0 - - - - - - -
03/03:00am 8.8 SE 9 10 1034.6 - 0.0 - - - - - - -
03/02:30am 8.8 SE 9 9 1034.7 - 0.0 - - - - - - -
03/02:00am 9.0 SE 9 9 1034.8 - 0.0 - - - - - - -
03/01:30am 9.0 SE 8 9 1034.6 - 0.0 - - - - - - -
03/01:00am 9.0 SE 8 10 1034.5 - 0.0 - - - - - - -
03/12:30am 9.0 SE 9 10 1034.5 - 0.0 - - - - - - -
03/12:00am 9.2 SE 7 9 1034.5 - 0.0 - - - - - - -
 
Date/Time
WST
Temp

°C
Wind Pressure Rain
since 9am
mm
Weather Cloud Vis
km
Sea
Height
m
Swell
Dir
 
Speed
knots
Gust
knots
hPa Trend Height
m
Period
s
Dir
02/11:30pm 9.4 SE 9 11 1034.4 - 0.0 - - - - - - -
02/11:00pm 9.7 SSE 9 11 1034.5 - 0.0 - - - - - - -
02/10:30pm 10.1 SSE 10 13 1034.4 - 0.0 - - - - - - -
02/10:00pm 10.8 SSE 11 14 1034.8 - 0.0 - - - - - - -
02/09:30pm 10.8 SSE 10 15 1035.0 - 0.0 - - - - - - -
02/09:00pm 10.9 SSE 9 13 1035.0 - 0.0 - - - - - - -
02/08:30pm 11.7 SSE 9 12 1034.7 - 0.0 - - - - - - -
02/08:00pm 12.2 SSE 9 12 1034.7 - 0.0 - - - - - - -
02/07:30pm 12.5 SSE 10 14 1034.6 - 0.0 - - - - - - -
02/07:00pm 12.4 SSE 9 11 1034.5 - 0.0 - - - - - - -
02/06:30pm 12.5 SSE 6 8 1034.3 - 0.0 - - - - - - -
02/06:00pm 12.8 SSE 7 9 1033.9 - 0.0 - - - - - - -
02/05:30pm 13.1 S 5 7 1033.6 - 0.0 - - - - - - -
02/05:00pm 13.4 ESE 4 6 1033.4 - 0.0 - - - - - - -
02/04:30pm 13.9 ESE 3 4 1033.3 - 0.0 - - - - - - -
02/04:00pm 15.2 ESE 5 8 1033.0 - 0.0 - - - - - - -
02/03:30pm 13.5 E 5 7 1032.9 - 0.0 - - - - - - -
02/03:00pm 14.8 E 8 11 1032.7 - 0.0 - - - - - - -
02/02:30pm 14.3 E 7 10 1032.7 - 0.0 - - - - - - -
02/02:00pm 14.3 E 9 11 1032.8 - 0.0 - - - - - - -
02/01:30pm 13.5 E 10 12 1033.0 - 0.0 - - - - - - -
02/01:00pm 14.7 E 9 11 1033.3 - 0.0 - - - - - - -
02/12:30pm 14.7 E 9 11 1033.7 - 0.0 - - - - - - -
02/12:00pm 14.7 E 9 12 1034.2 - 0.0 - - - - - - -
02/11:30am 14.8 ESE 7 11 1034.5 - 0.0 - - - - - - -
02/11:00am 14.3 E 7 10 1034.8 - 0.0 - - - - - - -
02/10:30am 13.7 E 8 11 1034.9 - 0.0 - - - - - - -
02/10:00am 13.3 E 9 11 1034.7 - 0.0 - - - - - - -
02/09:30am 12.9 E 9 11 1034.5 - 0.0 - - - - - - -
02/09:00am 12.9 ESE 7 9 1034.4 - 0.0 - - - - - - -
02/08:30am 10.9 ESE 7 8 1034.1 - 0.0 - - - - - - -
02/08:00am 8.9 SE 7 8 1033.8 - 0.0 - - - - - - -
02/07:30am 8.2 SE 8 9 1033.5 - 0.0 - - - - - - -
02/07:00am 7.6 SE 8 9 1032.9 - 0.0 - - - - - - -
02/06:30am 7.7 SE 8 9 1032.7 - 0.0 - - - - - - -

Other Formats:

Comma delimited format used in spreadsheet applications
http://www.bom.gov.au/fwo/IDW60701/IDW60701.94600.axf

JavaScript Object Notation format (JSON) in row-major order
http://www.bom.gov.au/fwo/IDW60701/IDW60701.94600.json